Needles, CA

12:02 PM PDT on August 31, 2015 (GMT -0700)
Needles | | Change Station
CLOSE
Current Station
Airport
Location: Needles,
Elevation: 981 ft
Nearby Weather Stations

Elev 981 ft 34.77 °N, 114.62 °W | Updated 6 minutes ago

Clear
Clear
105 °F
Feels Like 105 °F
N
12
Wind Variable Wind from South
Gusts 23 mph

Today
High -- | Low -- °F
--% Chance of Precip.
Yesterday
High -- | Low -- °F
Precip. -- in
6:10 AM 7:06 PM
Waning Gibbous, 94% visible
Pressure 29.70 in
Visibility 10.0 miles
Clouds Clear
Dew Point 42 °F
Humidity 12%
Rainfall 0.00 in
Snow Depth Not available.
UV 10 out of 12
Pollen 6.60 out of 12
Air Quality Not available.
Flu Activity Not available.
METAR KEED 311856Z AUTO 19010G20KT 10SM CLR 41/06 A2982 RMK AO2 SLP057 T04060056
Pressure 29.70 in
Visibility 10.0 miles
Clouds Clear
Dew Point 42 °F
Humidity 12%
Rainfall 0.00 in
Snow Depth Not available.
UV 10 out of 12
Pollen 6.60 out of 12
Air Quality Not available.
Flu Activity Not available.
METAR KEED 311856Z AUTO 19010G20KT 10SM CLR 41/06 A2982 RMK AO2 SLP057 T04060056

10-Day Weather Forecast

×

Almanac

Astronomy

Aug. 31, 2015 Rise Set
Actual Time
Civil Twilight
Nautical Twilight
Astronomical Twilight
Moon
Length of Visible Light
Length of Day
Tomorrow will be .
, % of the Moon is Illuminated

Today's Extremes

State Highs State Lows

Community

WunderPhotos

Upload Photos

1,851,340 photos uploaded!

WunderBlogs® & News

Nearby

Air Quality

  Air Quality AQ Index Pollutant
Not available.

Snow Depth

Station Depth Elevation

Earthquake Activity

City Distance Mag. Time & Date
Minimum magnitude displayed is 2.5.

Coastal Water Temperatures

Place Temperature

Stations

Nearby Weather Stations

Station Location Temp. Windchill Dew Point Humidity Wind Precip. Elev Updated Type